createdAt,value
2022-11-05T00:03:24.237Z,14.57
2022-11-05T00:06:19.813Z,14.25
2022-11-05T00:09:17.905Z,14.98
2022-11-05T00:12:07.118Z,13.82
2022-11-05T00:15:00.474Z,14.38
2022-11-05T00:17:33.447Z,14.63
2022-11-05T00:20:14.289Z,15.82
2022-11-05T00:23:23.168Z,15.05
2022-11-05T00:26:27.293Z,17.48
2022-11-05T00:28:58.336Z,15.55
2022-11-05T00:31:38.301Z,14.88
2022-11-05T00:34:08.850Z,14.18
2022-11-05T00:36:44.894Z,16.38
2022-11-05T00:39:19.598Z,15.88
2022-11-05T00:42:18.441Z,16.15
2022-11-05T00:45:02.231Z,16.55
2022-11-05T00:48:33.698Z,16.15
2022-11-05T00:51:04.605Z,16.88
2022-11-05T00:53:39.844Z,17.90
2022-11-05T00:56:07.541Z,15.80
2022-11-05T00:58:35.034Z,16.70
2022-11-05T01:01:06.031Z,16.88
2022-11-05T01:03:37.413Z,18.42
2022-11-05T01:06:15.226Z,17.83
2022-11-05T01:08:50.619Z,18.60
2022-11-05T01:11:51.395Z,17.88
2022-11-05T01:14:39.085Z,18.98
2022-11-05T01:17:16.467Z,17.02
2022-11-05T01:19:58.065Z,16.45
2022-11-05T01:25:28.348Z,16.77
2022-11-05T01:28:07.695Z,16.98
2022-11-05T01:30:43.353Z,17.38
2022-11-05T01:33:40.799Z,16.38
2022-11-05T01:36:18.058Z,15.70
2022-11-05T01:40:15.284Z,16.13
2022-11-05T01:42:47.986Z,15.43
2022-11-05T01:49:09.993Z,15.70
2022-11-05T01:51:50.112Z,14.98
2022-11-05T01:54:37.309Z,14.73
2022-11-05T01:57:15.107Z,15.38
2022-11-05T02:03:07.232Z,14.73
2022-11-05T02:05:46.511Z,16.33
2022-11-05T02:08:36.908Z,16.40
2022-11-05T02:11:23.958Z,15.65
2022-11-05T02:13:55.424Z,17.02
2022-11-05T02:16:55.695Z,15.43
2022-11-05T02:20:01.062Z,14.23
2022-11-05T02:23:14.380Z,14.00
2022-11-05T02:26:08.278Z,15.00
2022-11-05T02:29:11.420Z,15.10
2022-11-05T02:32:22.082Z,14.68
2022-11-05T02:35:01.308Z,16.52
2022-11-05T02:37:43.932Z,21.40
2022-11-05T02:41:03.961Z,24.70
2022-11-05T02:47:43.778Z,16.70
2022-11-05T02:50:46.271Z,15.68
2022-11-05T02:53:53.467Z,16.50
2022-11-05T02:59:59.257Z,17.73
2022-11-05T03:06:56.829Z,21.58
2022-11-05T03:10:31.203Z,20.33
2022-11-05T03:14:01.446Z,25.95
2022-11-05T03:17:21.793Z,24.40
2022-11-05T03:20:25.656Z,26.10
2022-11-05T03:23:35.360Z,25.80
2022-11-05T03:26:37.788Z,33.78
2022-11-05T03:29:57.934Z,34.77
2022-11-05T03:33:30.348Z,38.65
2022-11-05T03:36:27.343Z,37.35
2022-11-05T03:39:45.057Z,37.85
2022-11-05T03:42:28.467Z,35.90
2022-11-05T03:46:21.023Z,34.88
2022-11-05T03:50:01.864Z,32.92
2022-11-05T03:53:21.293Z,29.90
2022-11-05T03:56:44.019Z,29.38
2022-11-05T03:59:24.959Z,27.58
2022-11-05T04:02:35.601Z,27.17
2022-11-05T04:05:15.155Z,25.48
2022-11-05T04:08:14.300Z,28.60
2022-11-05T04:11:43.494Z,25.40
2022-11-05T04:14:20.282Z,25.73
2022-11-05T04:17:28.432Z,24.67
2022-11-05T04:20:15.466Z,23.23
2022-11-05T04:23:06.425Z,22.85
2022-11-05T04:25:35.418Z,22.50
2022-11-05T04:28:03.039Z,20.20
2022-11-05T04:30:31.056Z,21.02
2022-11-05T04:33:08.904Z,21.52
2022-11-05T04:35:51.171Z,21.80
2022-11-05T04:38:21.563Z,22.40
2022-11-05T04:40:51.760Z,20.00
2022-11-05T04:43:27.290Z,19.40
2022-11-05T04:45:59.504Z,20.52
2022-11-05T04:48:45.718Z,21.13
2022-11-05T04:51:36.332Z,19.08
2022-11-05T04:54:57.465Z,20.83
2022-11-05T04:57:33.830Z,21.80
2022-11-05T05:01:00.213Z,20.80
2022-11-05T05:04:54.134Z,20.45
2022-11-05T05:07:29.124Z,19.55
2022-11-05T05:10:14.085Z,20.38
2022-11-05T05:12:54.601Z,20.48
2022-11-05T05:15:26.341Z,20.83
2022-11-05T05:18:34.429Z,20.67
2022-11-05T05:21:48.133Z,23.92
2022-11-05T05:24:25.264Z,22.02
2022-11-05T05:30:24.460Z,23.98
2022-11-05T05:33:04.571Z,24.17
2022-11-05T05:35:38.624Z,22.98
2022-11-05T05:38:10.126Z,22.67
2022-11-05T05:40:38.875Z,23.88
2022-11-05T05:43:09.114Z,22.60
2022-11-05T05:45:36.748Z,21.63
2022-11-05T05:48:06.819Z,22.30
2022-11-05T05:50:34.692Z,24.02
2022-11-05T05:53:08.136Z,21.55
2022-11-05T05:55:36.152Z,22.10
2022-11-05T05:58:03.382Z,22.75
2022-11-05T06:00:39.629Z,25.63
2022-11-05T06:03:20.155Z,24.30
2022-11-05T06:05:49.978Z,27.83
2022-11-05T06:08:20.815Z,31.42
2022-11-05T06:11:24.186Z,30.52
2022-11-05T06:17:06.048Z,28.08
2022-11-05T06:19:53.426Z,28.35
2022-11-05T06:22:22.681Z,26.92
2022-11-05T06:24:50.115Z,27.77
2022-11-05T06:27:17.527Z,29.23
2022-11-05T06:29:45.802Z,30.60
2022-11-05T06:32:15.389Z,32.67
2022-11-05T06:34:48.006Z,34.95
2022-11-05T06:37:17.655Z,31.33
2022-11-05T06:39:44.856Z,30.48
2022-11-05T06:42:18.663Z,31.52
2022-11-05T06:44:47.722Z,33.90
2022-11-05T06:47:18.876Z,29.90
2022-11-05T06:49:49.284Z,251.52
2022-11-05T06:52:18.151Z,280.73
2022-11-05T06:54:45.665Z,65.05
2022-11-05T06:57:13.286Z,29.55
2022-11-05T06:59:43.196Z,33.28
2022-11-05T07:02:13.048Z,42.15
2022-11-05T07:04:40.356Z,39.10
2022-11-05T07:07:10.978Z,33.70
2022-11-05T07:09:42.946Z,32.42
2022-11-05T07:12:17.905Z,68.75
2022-11-05T07:14:49.353Z,32.42
2022-11-05T07:17:22.451Z,63.72
2022-11-05T07:19:50.003Z,48.75
2022-11-05T07:22:17.534Z,61.80
2022-11-05T07:24:50.359Z,44.72
2022-11-05T07:27:19.142Z,41.25
2022-11-05T07:29:46.931Z,33.10
2022-11-05T07:32:14.434Z,33.15
2022-11-05T07:34:41.727Z,38.10
2022-11-05T07:37:09.498Z,43.03
2022-11-05T07:39:37.966Z,42.28
2022-11-05T07:42:05.504Z,42.38
2022-11-05T07:44:35.295Z,41.33
2022-11-05T07:47:22.033Z,42.28
2022-11-05T07:49:54.315Z,39.10
2022-11-05T07:52:29.575Z,39.60
2022-11-05T07:55:13.867Z,39.10
2022-11-05T07:58:32.432Z,38.67
2022-11-05T08:03:54.652Z,43.65
2022-11-05T08:06:31.472Z,43.97
2022-11-05T08:09:43.536Z,40.55
2022-11-05T08:17:24.373Z,43.38
2022-11-05T08:30:48.816Z,96.03
2022-11-05T08:33:45.607Z,121.68
2022-11-05T08:36:28.364Z,56.70
2022-11-05T08:42:11.752Z,49.75
2022-11-05T08:44:49.192Z,52.60
2022-11-05T08:50:40.560Z,49.13
2022-11-05T08:53:17.950Z,51.95
2022-11-05T08:56:19.647Z,49.63
2022-11-05T08:59:08.339Z,54.00
2022-11-05T09:01:55.584Z,57.25
2022-11-05T09:04:42.045Z,58.58
2022-11-05T09:08:00.791Z,57.38
2022-11-05T09:10:54.557Z,61.75
2022-11-05T09:13:57.126Z,59.05
2022-11-05T09:16:52.621Z,59.03
2022-11-05T09:26:20.221Z,56.78
2022-11-05T09:30:33.298Z,51.20
2022-11-05T09:36:52.771Z,54.67
2022-11-05T09:39:23.566Z,51.50
2022-11-05T09:41:54.319Z,49.38
2022-11-05T09:44:26.595Z,50.58
2022-11-05T09:47:01.796Z,53.85
2022-11-05T09:49:31.973Z,55.17
2022-11-05T09:52:01.704Z,52.83
2022-11-05T09:54:33.937Z,51.83
2022-11-05T09:57:07.170Z,50.33
2022-11-05T09:59:47.202Z,55.45
2022-11-05T10:02:23.694Z,55.20
2022-11-05T10:04:57.222Z,53.92
2022-11-05T10:07:34.668Z,51.78
2022-11-05T10:10:09.276Z,57.25
2022-11-05T10:12:47.085Z,54.42
2022-11-05T10:15:17.523Z,50.38
2022-11-05T10:17:49.248Z,46.13
2022-11-05T10:20:34.185Z,46.90
2022-11-05T10:23:20.624Z,48.80
2022-11-05T10:26:04.588Z,47.17
2022-11-05T10:28:44.890Z,46.25
2022-11-05T10:32:17.317Z,47.92
2022-11-05T10:39:28.540Z,51.20
2022-11-05T10:42:57.789Z,55.05
2022-11-05T10:54:02.836Z,62.65
2022-11-05T11:01:23.687Z,70.15
2022-11-05T11:04:54.068Z,69.15
2022-11-05T11:13:22.999Z,70.28
2022-11-05T11:26:02.901Z,40.42
2022-11-05T11:29:37.200Z,34.03
2022-11-05T11:33:15.322Z,34.75
2022-11-05T11:50:39.667Z,29.05
2022-11-05T11:53:31.388Z,22.35
2022-11-05T11:56:06.395Z,25.80
2022-11-05T11:59:46.659Z,24.23
2022-11-05T12:12:42.088Z,30.15
2022-11-05T12:16:29.020Z,24.00
2022-11-05T12:19:54.726Z,24.50
2022-11-05T12:22:40.415Z,24.15
2022-11-05T12:25:16.497Z,27.05
2022-11-05T12:28:14.160Z,27.10
2022-11-05T12:31:03.257Z,23.73
2022-11-05T12:33:45.733Z,18.40
2022-11-05T12:36:20.521Z,15.43
2022-11-05T12:39:19.662Z,16.92
2022-11-05T12:42:06.187Z,20.15
2022-11-05T12:44:33.425Z,26.33
2022-11-05T12:47:15.030Z,19.10
2022-11-05T12:50:04.469Z,20.48
2022-11-05T12:52:44.249Z,17.52
2022-11-05T12:55:15.700Z,19.30
2022-11-05T12:57:47.252Z,24.25
2022-11-05T13:00:27.115Z,28.08
2022-11-05T13:03:10.855Z,27.65
2022-11-05T13:05:55.158Z,30.20
2022-11-05T13:08:57.491Z,27.35
2022-11-05T13:11:39.947Z,25.80
2022-11-05T13:14:22.554Z,27.60
2022-11-05T13:16:54.157Z,25.63
2022-11-05T13:19:32.174Z,25.95
2022-11-05T13:22:21.511Z,25.52
2022-11-05T13:24:53.706Z,27.95
2022-11-05T13:27:49.421Z,31.42
2022-11-05T13:30:24.556Z,27.27
2022-11-05T13:33:06.352Z,26.08
2022-11-05T13:36:24.573Z,27.05
2022-11-05T13:39:07.081Z,26.77
2022-11-05T13:42:14.620Z,29.67
2022-11-05T13:45:08.231Z,27.63
2022-11-05T13:48:04.571Z,21.95
2022-11-05T13:51:00.650Z,29.65
2022-11-05T13:54:09.241Z,37.22
2022-11-05T13:56:56.295Z,30.88
2022-11-05T13:59:38.785Z,31.95
2022-11-05T14:02:23.907Z,28.42
2022-11-05T14:05:01.507Z,21.88
2022-11-05T14:07:32.258Z,16.60
2022-11-05T14:10:11.712Z,20.83
2022-11-05T14:12:40.773Z,18.50
2022-11-05T14:15:20.273Z,15.25
2022-11-05T14:18:27.261Z,11.75
2022-11-05T14:20:59.954Z,13.55
2022-11-05T14:23:38.458Z,11.77
2022-11-05T14:26:19.228Z,12.85
2022-11-05T14:29:04.736Z,16.25
2022-11-05T14:32:08.349Z,16.20
2022-11-05T14:35:00.745Z,14.13
2022-11-05T14:37:33.354Z,13.07
2022-11-05T14:40:37.267Z,13.05
2022-11-05T14:43:25.958Z,13.57
2022-11-05T14:46:03.569Z,15.07
2022-11-05T14:48:35.846Z,14.02
2022-11-05T14:51:17.186Z,16.27
2022-11-05T14:53:45.081Z,19.50
2022-11-05T14:56:19.001Z,18.50
2022-11-05T14:58:47.057Z,18.92
2022-11-05T15:01:14.259Z,19.67
2022-11-05T15:03:46.449Z,17.73
2022-11-05T15:06:22.547Z,17.73
2022-11-05T15:08:49.750Z,20.98
2022-11-05T15:11:22.875Z,22.73
2022-11-05T15:13:56.037Z,21.75
2022-11-05T15:16:31.679Z,22.33
2022-11-05T15:19:00.094Z,23.58
2022-11-05T15:21:31.804Z,23.17
2022-11-05T15:23:59.910Z,25.17
2022-11-05T15:26:47.589Z,23.55
2022-11-05T15:29:22.287Z,26.42
2022-11-05T15:31:50.970Z,21.10
2022-11-05T15:34:36.339Z,28.08
2022-11-05T15:37:12.863Z,29.25
2022-11-05T15:39:45.770Z,28.67
2022-11-05T15:42:15.804Z,26.33
2022-11-05T15:44:54.331Z,25.10
2022-11-05T15:47:23.793Z,33.60
2022-11-05T15:49:57.174Z,29.60
2022-11-05T15:52:33.774Z,33.70
2022-11-05T15:55:14.516Z,31.33
2022-11-05T15:58:07.321Z,34.58
2022-11-05T16:00:37.200Z,32.17
2022-11-05T16:03:12.518Z,29.88
2022-11-05T16:05:46.370Z,31.50
2022-11-05T16:08:46.102Z,34.88
2022-11-05T16:11:25.482Z,33.60
2022-11-05T16:14:14.551Z,34.83
2022-11-05T16:16:44.458Z,34.42
2022-11-05T16:19:40.236Z,34.55
2022-11-05T16:22:09.331Z,35.67
2022-11-05T16:24:39.403Z,40.33
2022-11-05T16:27:08.476Z,36.55
2022-11-05T16:29:45.000Z,37.63
2022-11-05T16:32:29.692Z,36.58
2022-11-05T16:35:03.094Z,42.05
2022-11-05T16:37:40.130Z,41.95
2022-11-05T16:40:19.573Z,41.33
2022-11-05T16:42:48.629Z,45.20
2022-11-05T16:45:18.452Z,45.63
2022-11-05T16:47:47.464Z,44.30
2022-11-05T16:50:36.981Z,49.90
2022-11-05T16:53:10.044Z,42.30
2022-11-05T16:55:42.408Z,43.33
2022-11-05T16:58:27.973Z,42.13
2022-11-05T17:01:08.819Z,38.85
2022-11-05T17:03:37.257Z,40.83
2022-11-05T17:06:06.405Z,42.03
2022-11-05T17:08:36.397Z,40.13
2022-11-05T17:11:06.723Z,40.97
2022-11-05T17:13:36.395Z,39.08
2022-11-05T17:16:04.919Z,38.53
2022-11-05T17:18:33.650Z,38.67
2022-11-05T17:21:01.856Z,39.08
2022-11-05T17:23:30.412Z,41.05
2022-11-05T17:26:07.701Z,40.03
2022-11-05T17:28:37.807Z,37.67
2022-11-05T17:31:10.844Z,34.25
2022-11-05T17:33:40.754Z,31.92
2022-11-05T17:36:13.312Z,31.63
2022-11-05T17:38:43.666Z,30.77
2022-11-05T17:41:16.955Z,31.83
2022-11-05T17:43:47.355Z,31.00
2022-11-05T17:46:17.399Z,30.33
2022-11-05T17:48:46.447Z,32.15
2022-11-05T17:51:19.894Z,33.30
2022-11-05T17:53:49.299Z,33.55
2022-11-05T17:56:33.459Z,34.58
2022-11-05T17:59:04.452Z,35.30
2022-11-05T18:01:35.728Z,34.67
2022-11-05T18:04:08.581Z,34.00
2022-11-05T18:06:40.536Z,32.33
2022-11-05T18:09:10.499Z,34.20
2022-11-05T18:11:39.758Z,34.45
2022-11-05T18:14:08.488Z,38.70
2022-11-05T18:16:38.265Z,41.50
2022-11-05T18:19:09.174Z,35.10
2022-11-05T18:21:38.152Z,35.78
2022-11-05T18:24:08.345Z,33.50
2022-11-05T18:26:37.338Z,34.88
2022-11-05T18:29:12.069Z,36.60
2022-11-05T18:31:44.096Z,32.72
2022-11-05T18:34:12.397Z,31.60
2022-11-05T18:36:45.475Z,29.50
2022-11-05T18:39:18.078Z,31.80
2022-11-05T18:41:47.072Z,32.03
2022-11-05T18:44:22.829Z,32.50
2022-11-05T18:46:58.233Z,32.03
2022-11-05T18:49:29.966Z,31.50
2022-11-05T18:51:58.030Z,33.83
2022-11-05T18:54:27.043Z,32.25
2022-11-05T18:57:01.086Z,35.28
2022-11-05T19:02:14.779Z,34.58
2022-11-05T19:05:06.573Z,34.53
2022-11-05T19:07:40.262Z,33.20
2022-11-05T19:10:09.339Z,33.90
2022-11-05T19:12:43.345Z,32.45
2022-11-05T19:15:15.773Z,29.48
2022-11-05T19:17:46.948Z,29.35
2022-11-05T19:20:17.222Z,30.80
2022-11-05T19:22:50.875Z,30.55
2022-11-05T19:25:18.919Z,34.63
2022-11-05T19:27:47.094Z,29.15
2022-11-05T19:30:16.049Z,28.05
2022-11-05T19:32:43.564Z,26.55
2022-11-05T19:35:10.778Z,25.80
2022-11-05T19:37:38.337Z,25.25
2022-11-05T19:40:10.225Z,25.67
2022-11-05T19:42:38.035Z,24.60
2022-11-05T19:47:54.219Z,24.05
2022-11-05T19:50:21.486Z,22.85
2022-11-05T19:52:49.095Z,24.20
2022-11-05T19:55:16.458Z,25.48
2022-11-05T19:57:45.227Z,26.63
2022-11-05T20:00:15.989Z,26.77
2022-11-05T20:02:48.808Z,24.40
2022-11-05T20:05:19.465Z,24.05
2022-11-05T20:07:52.543Z,24.55
2022-11-05T20:10:20.675Z,23.92
2022-11-05T20:12:53.620Z,22.05
2022-11-05T20:15:21.351Z,25.67
2022-11-05T20:17:52.842Z,29.63
2022-11-05T20:20:21.488Z,30.30
2022-11-05T20:22:53.283Z,29.48
2022-11-05T20:25:21.411Z,29.50
2022-11-05T20:27:50.000Z,30.25
2022-11-05T20:30:17.527Z,26.25
2022-11-05T20:32:45.355Z,27.00
2022-11-05T20:35:14.332Z,28.77
2022-11-05T20:37:43.616Z,26.90
2022-11-05T20:40:15.347Z,26.42
2022-11-05T20:42:44.182Z,26.20
2022-11-05T20:45:15.925Z,26.75
2022-11-05T20:47:47.436Z,28.98
2022-11-05T20:50:19.067Z,35.45
2022-11-05T20:52:46.973Z,34.38
2022-11-05T20:55:15.554Z,35.75
2022-11-05T20:57:43.644Z,38.58
2022-11-05T21:00:15.414Z,39.42
2022-11-05T21:02:44.478Z,35.20
2022-11-05T21:05:13.389Z,34.78
2022-11-05T21:07:42.884Z,35.00
2022-11-05T21:10:12.786Z,32.88
2022-11-05T21:12:40.504Z,36.28
2022-11-05T21:15:09.142Z,33.67
2022-11-05T21:17:37.771Z,33.38
2022-11-05T21:20:11.370Z,33.58
2022-11-05T21:22:45.461Z,36.22
2022-11-05T21:25:13.404Z,34.53
2022-11-05T21:27:44.802Z,31.58
2022-11-05T21:30:14.680Z,37.78
2022-11-05T21:32:45.165Z,33.97
2022-11-05T21:35:12.604Z,37.42
2022-11-05T21:37:42.165Z,40.70
2022-11-05T21:40:15.989Z,40.70
2022-11-05T21:42:43.942Z,40.38
2022-11-05T21:45:12.974Z,40.83
2022-11-05T21:47:40.827Z,45.13
2022-11-05T21:50:09.472Z,44.30
2022-11-05T21:52:55.980Z,43.50
2022-11-05T21:55:41.934Z,38.97
2022-11-05T21:58:34.190Z,45.33
2022-11-05T22:01:03.167Z,40.10
2022-11-05T22:03:32.932Z,40.40
2022-11-05T22:06:01.917Z,39.78
2022-11-05T22:08:30.672Z,40.03
2022-11-05T22:10:58.210Z,39.42
2022-11-05T22:13:25.729Z,39.75
2022-11-05T22:15:57.214Z,40.42
2022-11-05T22:18:24.843Z,41.97
2022-11-05T22:20:52.224Z,42.22
2022-11-05T22:23:22.571Z,41.50
2022-11-05T22:25:51.250Z,42.58
2022-11-05T22:28:20.439Z,43.20
2022-11-05T22:30:47.712Z,41.78
2022-11-05T22:33:18.839Z,43.72
2022-11-05T22:35:47.811Z,42.60
2022-11-05T22:38:18.277Z,42.47
2022-11-05T22:40:46.517Z,45.22
2022-11-05T22:43:14.549Z,46.03
2022-11-05T22:45:43.891Z,39.50
2022-11-05T22:48:11.672Z,43.47
2022-11-05T22:50:39.622Z,47.90
2022-11-05T22:53:07.124Z,41.85
2022-11-05T22:55:39.329Z,42.45
2022-11-05T22:58:07.777Z,38.72
2022-11-05T23:00:38.374Z,38.50
2022-11-05T23:03:06.331Z,40.67
2022-11-05T23:05:33.727Z,40.45
2022-11-05T23:08:20.860Z,42.80
2022-11-05T23:11:06.745Z,40.80
2022-11-05T23:13:34.407Z,47.67
2022-11-05T23:16:20.124Z,44.70
2022-11-05T23:19:06.386Z,41.63
2022-11-05T23:21:58.331Z,40.33
2022-11-05T23:24:25.967Z,39.58
2022-11-05T23:26:54.243Z,40.92
2022-11-05T23:29:24.656Z,40.50
2022-11-05T23:32:13.133Z,39.78
2022-11-05T23:34:41.444Z,38.08
2022-11-05T23:37:27.664Z,45.90
2022-11-05T23:39:56.223Z,38.28
2022-11-05T23:42:42.046Z,41.03
2022-11-05T23:45:28.979Z,39.08
2022-11-05T23:48:17.798Z,37.22
2022-11-05T23:50:50.403Z,37.47
2022-11-05T23:53:20.432Z,37.97
2022-11-05T23:55:49.268Z,37.17
2022-11-05T23:58:18.853Z,36.90
